Terminal Aerodrome Forecast
Issued by NWS

Current Version | Previous Version | Text Only | Print | Product List | Glossary On
Versions: 1 2 3 4 5 6 7 8 9 10 11 12 13 14 15 16 17 18 19 20 21 22 23 24
212
FTUS42 KTAE 221736
TAFECP
TAF
KECP 221736Z 2218/2318 19021G30KT P6SM OVC012
      TEMPO 2218/2220 VRB30G40KT 2SM +TSRA BKN008CB
     FM222100 23015G28KT P6SM BKN035
     FM230200 23014G25KT P6SM SCT100
     FM230800 29020G30KT P6SM BKN030=

USA.gov is the U.S. government's official web portal to all federal, state and local government web resources and services.